createdAt,value
2023-01-13T19:31:07.788Z,12.20
2023-01-13T19:33:38.292Z,9.50
2023-01-13T19:36:09.935Z,9.40
2023-01-13T19:38:39.928Z,9.40
2023-01-13T19:41:30.130Z,9.40
2023-01-13T19:44:13.310Z,9.40
2023-01-13T19:46:46.903Z,9.40
2023-01-13T19:49:17.308Z,9.30
2023-01-13T19:51:46.825Z,9.30
2023-01-13T19:54:16.309Z,9.30
2023-01-13T19:56:45.971Z,9.40
2023-01-13T19:59:19.148Z,9.40
2023-01-13T20:01:52.375Z,9.30
2023-01-13T20:04:27.489Z,9.30
2023-01-13T20:06:56.992Z,9.30
2023-01-13T20:09:26.680Z,9.30
2023-01-13T20:11:56.864Z,9.30
2023-01-13T20:14:26.739Z,9.30
2023-01-13T20:16:59.283Z,9.30
2023-01-13T20:19:28.935Z,9.30
2023-01-13T20:21:58.558Z,9.30
2023-01-13T20:24:28.822Z,9.20
2023-01-13T20:26:58.428Z,9.20
2023-01-13T20:29:28.047Z,9.20
2023-01-13T20:32:00.546Z,9.20
2023-01-13T20:34:30.319Z,9.20
2023-01-13T20:37:00.287Z,9.20
2023-01-13T20:39:30.911Z,9.10
2023-01-13T20:42:13.242Z,9.20
2023-01-13T20:44:44.470Z,9.20
2023-01-13T20:47:16.907Z,9.20
2023-01-13T20:49:46.765Z,9.20
2023-01-13T20:52:16.384Z,9.20
2023-01-13T20:54:46.057Z,9.20
2023-01-13T20:57:15.780Z,9.20
2023-01-13T20:59:45.463Z,9.20
2023-01-13T21:02:20.429Z,9.40
2023-01-13T21:04:49.920Z,9.10
2023-01-13T21:07:19.363Z,9.10
2023-01-13T21:09:48.951Z,9.10
2023-01-13T21:12:31.794Z,9.00
2023-01-13T21:15:13.763Z,9.00
2023-01-13T21:17:58.357Z,8.90
2023-01-13T21:20:30.513Z,8.90
2023-01-13T21:22:59.961Z,9.00
2023-01-13T21:25:29.592Z,8.90
2023-01-13T21:28:03.436Z,8.90
2023-01-13T21:30:32.930Z,8.90
2023-01-13T21:33:06.227Z,8.90
2023-01-13T21:35:35.941Z,8.90
2023-01-13T21:38:05.396Z,8.90
2023-01-13T21:40:34.855Z,8.90
2023-01-13T21:43:16.875Z,8.80
2023-01-13T21:46:01.323Z,8.80
2023-01-13T21:48:33.373Z,8.80
2023-01-13T21:51:03.528Z,8.80
2023-01-13T21:53:32.997Z,8.80
2023-01-13T21:56:02.473Z,8.80
2023-01-13T21:58:31.929Z,8.80
2023-01-13T22:01:03.943Z,8.90
2023-01-13T22:03:57.277Z,8.90
2023-01-13T22:06:27.122Z,8.90
2023-01-13T22:08:59.938Z,9.00
2023-01-13T22:11:29.636Z,9.00
2023-01-13T22:14:13.687Z,8.90
2023-01-13T22:16:49.532Z,8.90
2023-01-13T22:19:21.661Z,8.90
2023-01-13T22:21:51.107Z,8.90
2023-01-13T22:24:21.055Z,8.90
2023-01-13T22:26:50.564Z,9.00
2023-01-13T22:29:20.187Z,9.00
2023-01-13T22:31:49.656Z,9.00
2023-01-13T22:34:21.742Z,9.00
2023-01-13T22:36:51.252Z,10.30
2023-01-13T22:39:20.717Z,9.00
2023-01-13T22:41:50.183Z,9.00
2023-01-13T22:44:19.678Z,9.10
2023-01-13T22:46:49.204Z,9.10
2023-01-13T22:49:20.075Z,9.00
2023-01-13T22:51:52.133Z,9.00
2023-01-13T22:54:21.677Z,9.00
2023-01-13T22:56:51.141Z,9.00
2023-01-13T22:59:21.964Z,9.00
2023-01-13T23:01:51.523Z,9.00
2023-01-13T23:04:21.329Z,9.00
2023-01-13T23:06:53.522Z,9.00
2023-01-13T23:09:23.010Z,9.00
2023-01-13T23:11:53.677Z,9.00
2023-01-13T23:14:23.370Z,9.00
2023-01-13T23:16:53.248Z,9.00
2023-01-13T23:19:22.733Z,9.00
2023-01-13T23:21:54.994Z,9.00
2023-01-13T23:24:29.463Z,9.00
2023-01-13T23:26:59.195Z,9.00
2023-01-13T23:29:28.854Z,9.00
2023-01-13T23:31:58.975Z,9.00
2023-01-13T23:34:30.595Z,9.00
2023-01-13T23:37:02.795Z,9.00
2023-01-13T23:39:32.314Z,9.00
2023-01-13T23:42:02.282Z,9.00
2023-01-13T23:44:31.739Z,8.90
2023-01-13T23:47:01.202Z,8.90
2023-01-13T23:49:30.864Z,8.80
2023-01-13T23:52:02.975Z,8.80
2023-01-13T23:54:32.505Z,8.90
2023-01-13T23:57:01.989Z,8.90
2023-01-13T23:59:31.423Z,8.90
